Time;durP1;ratioP1;P1;durP2;ratioP2;P2;SDS_P1;SDS_P2;PMS_P1;PMS_P2;Temp;Humidity;BMP_temperature;BMP_pressure;BME280_temperature;BME280_humidity;BME280_pressure;Samples;Min_cycle;Max_cycle;Signal;HPM_P1;HPM_P2
2022/04/05 00:00:10;;;;;;;5.72;5.22;;;;;;;;;;510266;29;962;-83
2022/04/05 00:00:27;;;;;;;5.70;5.20;;;;;;;;;;511002;29;1648;-83
2022/04/05 00:00:42;;;;;;;5.80;5.20;;;;;;;;;;512545;28;1261;-83
2022/04/05 00:00:58;;;;;;;5.68;5.18;;;;;;;;;;514078;28;909;-83
2022/04/05 00:01:13;;;;;;;5.87;5.37;;;;;;;;;;511814;29;1295;-83
2022/04/05 00:01:29;;;;;;;6.30;5.80;;;;;;;;;;511606;28;764;-83
2022/04/05 00:01:44;;;;;;;6.45;5.88;;;;;;;;;;514090;28;1066;-83
2022/04/05 00:01:59;;;;;;;6.03;5.53;;;;;;;;;;514016;28;882;-83
2022/04/05 00:02:15;;;;;;;6.18;5.57;;;;;;;;;;513981;28;1505;-83
2022/04/05 00:02:30;;;;;;;6.23;5.60;;;;;;;;;;511210;29;1653;-83
2022/04/05 00:02:46;;;;;;;6.18;5.60;;;;;;;;;;512084;29;1178;-83
2022/04/05 00:03:02;;;;;;;6.10;5.60;;;;;;;;;;511091;28;1592;-83
2022/04/05 00:03:17;;;;;;;5.70;5.20;;;;;;;;;;511014;28;1748;-83
2022/04/05 00:03:33;;;;;;;5.93;5.43;;;;;;;;;;509580;29;1426;-83
2022/04/05 00:03:49;;;;;;;6.10;5.60;;;;;;;;;;510009;29;1179;-83
2022/04/05 00:04:04;;;;;;;6.30;5.70;;;;;;;;;;510223;29;1510;-83
2022/04/05 00:04:19;;;;;;;6.25;5.70;;;;;;;;;;510643;29;1025;-83
2022/04/05 00:04:35;;;;;;;5.90;5.40;;;;;;;;;;511754;29;1763;-83
2022/04/05 00:04:50;;;;;;;5.88;5.28;;;;;;;;;;511971;28;1441;-83
2022/04/05 00:05:06;;;;;;;5.90;5.30;;;;;;;;;;512173;28;1213;-83
2022/04/05 00:05:22;;;;;;;5.95;5.43;;;;;;;;;;513323;28;1385;-83
2022/04/05 00:05:37;;;;;;;5.97;5.47;;;;;;;;;;515660;28;1464;-83
2022/04/05 00:05:53;;;;;;;5.93;5.43;;;;;;;;;;515616;28;1453;-83
2022/04/05 00:06:08;;;;;;;6.03;5.30;;;;;;;;;;513556;28;1611;-83
2022/04/05 00:06:23;;;;;;;5.80;5.20;;;;;;;;;;515191;28;1432;-83
2022/04/05 00:06:39;;;;;;;5.60;5.10;;;;;;;;;;512878;28;1468;-83
2022/04/05 00:06:54;;;;;;;5.57;5.07;;;;;;;;;;513941;28;1060;-83
2022/04/05 00:07:09;;;;;;;5.87;5.37;;;;;;;;;;515380;28;1663;-83
2022/04/05 00:07:25;;;;;;;6.00;5.50;;;;;;;;;;515824;28;1914;-83
2022/04/05 00:07:40;;;;;;;5.80;5.30;;;;;;;;;;515600;28;1670;-83
2022/04/05 00:07:56;;;;;;;5.70;5.20;;;;;;;;;;513427;28;1492;-83
2022/04/05 00:08:11;;;;;;;5.87;5.33;;;;;;;;;;513565;28;1477;-83
2022/04/05 00:08:26;;;;;;;6.22;5.63;;;;;;;;;;515188;28;1496;-83
2022/04/05 00:08:42;;;;;;;6.17;5.60;;;;;;;;;;517145;28;1496;-83
2022/04/05 00:08:57;;;;;;;5.88;5.20;;;;;;;;;;517182;28;1406;-83
2022/04/05 00:09:13;;;;;;;6.17;5.40;;;;;;;;;;515511;28;1600;-83
2022/04/05 00:09:28;;;;;;;6.33;5.73;;;;;;;;;;513347;28;1401;-83
2022/04/05 00:09:43;;;;;;;6.00;5.47;;;;;;;;;;512047;28;1251;-82
2022/04/05 00:09:58;;;;;;;5.83;5.33;;;;;;;;;;513996;28;1149;-82
2022/04/05 00:10:14;;;;;;;5.77;5.27;;;;;;;;;;513599;28;1555;-82
2022/04/05 00:10:31;;;;;;;5.57;5.18;;;;;;;;;;515063;28;1691;-83
2022/04/05 00:10:46;;;;;;;6.07;5.57;;;;;;;;;;515476;28;1595;-83
2022/04/05 00:11:01;;;;;;;6.43;5.87;;;;;;;;;;516029;28;898;-83
2022/04/05 00:11:17;;;;;;;6.20;5.70;;;;;;;;;;516526;28;883;-83
2022/04/05 00:11:32;;;;;;;5.90;5.40;;;;;;;;;;515412;28;1535;-83
2022/04/05 00:11:47;;;;;;;5.90;5.40;;;;;;;;;;514001;28;1172;-83
2022/04/05 00:12:03;;;;;;;6.10;5.60;;;;;;;;;;512703;28;1648;-83
2022/04/05 00:12:22;;;;;;;6.30;5.80;;;;;;;;;;512823;28;2006;-83
2022/04/05 00:12:37;;;;;;;6.20;5.60;;;;;;;;;;510738;29;1629;-83
2022/04/05 00:12:53;;;;;;;6.20;5.60;;;;;;;;;;508837;29;1502;-83
2022/04/05 00:13:08;;;;;;;6.03;5.43;;;;;;;;;;509759;29;851;-83
2022/04/05 00:13:24;;;;;;;5.97;5.38;;;;;;;;;;511058;29;775;-83
2022/04/05 00:13:39;;;;;;;6.07;5.47;;;;;;;;;;512798;28;1191;-83
2022/04/05 00:13:55;;;;;;;6.18;5.57;;;;;;;;;;513419;28;1532;-83
2022/04/05 00:14:10;;;;;;;6.30;5.70;;;;;;;;;;512031;29;1332;-82
2022/04/05 00:14:27;;;;;;;6.20;5.60;;;;;;;;;;511821;28;1616;-82
2022/04/05 00:14:43;;;;;;;6.32;5.72;;;;;;;;;;513232;28;1641;-82
2022/04/05 00:14:58;;;;;;;6.60;6.00;;;;;;;;;;511908;28;1367;-82
2022/04/05 00:15:15;;;;;;;6.57;5.97;;;;;;;;;;512257;29;1266;-82
2022/04/05 00:15:30;;;;;;;6.25;5.75;;;;;;;;;;512460;28;1596;-82
2022/04/05 00:15:46;;;;;;;7.83;7.13;;;;;;;;;;513209;28;1128;-82
2022/04/05 00:16:01;;;;;;;8.35;7.55;;;;;;;;;;514142;28;1786;-82
2022/04/05 00:16:16;;;;;;;6.97;6.37;;;;;;;;;;515478;28;1432;-82
2022/04/05 00:16:32;;;;;;;6.45;5.85;;;;;;;;;;515313;28;1626;-83
2022/04/05 00:16:47;;;;;;;6.23;5.63;;;;;;;;;;514455;28;1149;-83
2022/04/05 00:17:03;;;;;;;6.27;5.70;;;;;;;;;;516171;28;862;-83
2022/04/05 00:17:18;;;;;;;6.20;5.70;;;;;;;;;;516097;28;1052;-83
2022/04/05 00:17:33;;;;;;;6.20;5.70;;;;;;;;;;515812;28;1480;-82
2022/04/05 00:17:49;;;;;;;6.22;5.63;;;;;;;;;;516330;28;818;-82
2022/04/05 00:18:04;;;;;;;6.27;5.70;;;;;;;;;;516176;28;1646;-82
2022/04/05 00:18:20;;;;;;;6.30;5.70;;;;;;;;;;515307;28;1428;-83
2022/04/05 00:18:37;;;;;;;5.90;5.40;;;;;;;;;;515948;28;1663;-83
2022/04/05 00:18:52;;;;;;;5.80;5.30;;;;;;;;;;515756;28;1583;-83
2022/04/05 00:19:07;;;;;;;5.73;5.23;;;;;;;;;;515869;28;1346;-83
2022/04/05 00:19:23;;;;;;;5.72;5.13;;;;;;;;;;515688;28;1790;-83
2022/04/05 00:19:39;;;;;;;5.73;5.13;;;;;;;;;;515891;28;1409;-83
2022/04/05 00:19:54;;;;;;;5.70;5.20;;;;;;;;;;516096;28;1192;-83
2022/04/05 00:20:09;;;;;;;5.78;5.28;;;;;;;;;;513488;28;1997;-83
2022/04/05 00:20:27;;;;;;;6.03;5.53;;;;;;;;;;513945;28;803;-83
2022/04/05 00:20:42;;;;;;;6.50;5.90;;;;;;;;;;512639;28;1579;-83
2022/04/05 00:20:57;;;;;;;6.20;5.70;;;;;;;;;;511950;28;1418;-83
2022/04/05 00:21:13;;;;;;;6.20;5.70;;;;;;;;;;513077;28;882;-83
2022/04/05 00:21:28;;;;;;;6.30;5.80;;;;;;;;;;509094;29;1559;-82
2022/04/05 00:21:45;;;;;;;6.20;5.70;;;;;;;;;;511038;29;1182;-82
2022/04/05 00:22:00;;;;;;;6.00;5.50;;;;;;;;;;511953;29;929;-82
2022/04/05 00:22:16;;;;;;;5.80;5.30;;;;;;;;;;511901;28;1569;-82
2022/04/05 00:22:31;;;;;;;5.80;5.30;;;;;;;;;;511797;29;1243;-82
2022/04/05 00:22:46;;;;;;;5.80;5.30;;;;;;;;;;512159;29;818;-82
2022/04/05 00:23:02;;;;;;;5.97;5.37;;;;;;;;;;511873;28;1486;-82
2022/04/05 00:23:19;;;;;;;6.10;5.50;;;;;;;;;;512477;28;1169;-82
2022/04/05 00:23:34;;;;;;;5.80;5.30;;;;;;;;;;511852;29;1356;-82
2022/04/05 00:23:50;;;;;;;5.80;5.30;;;;;;;;;;511125;28;1675;-83
2022/04/05 00:24:05;;;;;;;6.13;5.53;;;;;;;;;;512572;28;1458;-83
2022/04/05 00:24:21;;;;;;;6.07;5.57;;;;;;;;;;511588;29;1772;-83
2022/04/05 00:24:37;;;;;;;5.90;5.40;;;;;;;;;;510377;29;1251;-83
2022/04/05 00:24:52;;;;;;;5.60;5.10;;;;;;;;;;509190;29;1560;-83
2022/04/05 00:25:08;;;;;;;6.00;5.40;;;;;;;;;;510541;29;918;-83
2022/04/05 00:25:24;;;;;;;6.03;5.53;;;;;;;;;;512518;28;901;-83
2022/04/05 00:25:39;;;;;;;5.90;5.40;;;;;;;;;;511964;28;1596;-83
2022/04/05 00:25:54;;;;;;;5.80;5.30;;;;;;;;;;510321;29;1228;-82
2022/04/05 00:26:10;;;;;;;5.63;5.20;;;;;;;;;;509696;29;1668;-83
2022/04/05 00:26:25;;;;;;;5.50;5.10;;;;;;;;;;511846;28;1446;-83
2022/04/05 00:26:41;;;;;;;5.50;5.00;;;;;;;;;;512392;28;1259;-83
2022/04/05 00:26:57;;;;;;;5.50;5.00;;;;;;;;;;513321;28;1493;-83
2022/04/05 00:27:12;;;;;;;5.80;5.30;;;;;;;;;;514138;28;857;-83
2022/04/05 00:27:27;;;;;;;5.90;5.40;;;;;;;;;;512982;28;1914;-83
2022/04/05 00:27:43;;;;;;;5.80;5.30;;;;;;;;;;514407;28;819;-83
2022/04/05 00:27:58;;;;;;;5.60;5.10;;;;;;;;;;514835;28;1933;-83
2022/04/05 00:28:14;;;;;;;5.60;5.10;;;;;;;;;;513559;28;1217;-83
2022/04/05 00:28:29;;;;;;;5.80;5.30;;;;;;;;;;512056;28;1629;-83
2022/04/05 00:28:44;;;;;;;5.83;5.33;;;;;;;;;;514025;28;866;-83
2022/04/05 00:29:00;;;;;;;5.83;5.33;;;;;;;;;;515674;28;1674;-83
2022/04/05 00:29:15;;;;;;;5.65;5.25;;;;;;;;;;513798;28;1255;-83
2022/04/05 00:29:30;;;;;;;5.80;5.30;;;;;;;;;;514018;28;877;-83
2022/04/05 00:29:46;;;;;;;5.70;5.20;;;;;;;;;;514321;28;1209;-82
2022/04/05 00:30:02;;;;;;;5.70;5.20;;;;;;;;;;516300;28;1160;-82
2022/04/05 00:30:17;;;;;;;5.68;5.18;;;;;;;;;;517904;28;1279;-83
2022/04/05 00:30:33;;;;;;;5.70;5.20;;;;;;;;;;517995;28;1171;-83
2022/04/05 00:30:48;;;;;;;5.50;5.00;;;;;;;;;;518179;28;841;-82
2022/04/05 00:31:05;;;;;;;5.20;4.80;;;;;;;;;;517358;28;1392;-83
2022/04/05 00:31:21;;;;;;;5.63;5.13;;;;;;;;;;515017;28;1401;-83
2022/04/05 00:31:36;;;;;;;5.70;5.20;;;;;;;;;;515398;28;1493;-82
2022/04/05 00:31:52;;;;;;;5.43;4.93;;;;;;;;;;514594;28;1592;-83
2022/04/05 00:32:08;;;;;;;5.50;5.00;;;;;;;;;;515845;28;889;-83
2022/04/05 00:32:24;;;;;;;5.78;5.28;;;;;;;;;;513988;28;1519;-82
2022/04/05 00:32:39;;;;;;;5.80;5.30;;;;;;;;;;513489;28;1556;-83
2022/04/05 00:32:55;;;;;;;5.60;5.10;;;;;;;;;;514044;28;1417;-82
2022/04/05 00:33:10;;;;;;;5.40;4.88;;;;;;;;;;515784;28;1613;-82
2022/04/05 00:33:25;;;;;;;5.47;4.97;;;;;;;;;;516312;28;1537;-82
2022/04/05 00:33:41;;;;;;;5.43;4.95;;;;;;;;;;514096;28;1462;-83
2022/04/05 00:33:56;;;;;;;5.07;4.67;;;;;;;;;;513579;28;1538;-83
2022/04/05 00:34:11;;;;;;;5.20;4.70;;;;;;;;;;514199;28;1576;-82
2022/04/05 00:34:27;;;;;;;5.40;4.90;;;;;;;;;;516255;28;1399;-82
2022/04/05 00:34:42;;;;;;;5.40;4.90;;;;;;;;;;513544;28;1444;-82
2022/04/05 00:34:57;;;;;;;5.28;4.88;;;;;;;;;;513808;28;1705;-82
2022/04/05 00:35:13;;;;;;;5.17;4.77;;;;;;;;;;513909;28;1304;-82
2022/04/05 00:35:28;;;;;;;5.33;4.93;;;;;;;;;;512064;29;1251;-82
2022/04/05 00:35:44;;;;;;;5.60;5.15;;;;;;;;;;512093;28;1947;-82
2022/04/05 00:35:59;;;;;;;5.63;5.17;;;;;;;;;;512701;28;1478;-82
2022/04/05 00:36:15;;;;;;;5.60;5.10;;;;;;;;;;514142;28;865;-82
2022/04/05 00:36:30;;;;;;;5.60;5.10;;;;;;;;;;514308;28;898;-82
2022/04/05 00:36:45;;;;;;;5.38;4.97;;;;;;;;;;516213;28;944;-82
2022/04/05 00:37:01;;;;;;;5.40;4.90;;;;;;;;;;515412;28;1745;-82
2022/04/05 00:37:17;;;;;;;5.30;4.80;;;;;;;;;;516820;28;1532;-82
2022/04/05 00:37:32;;;;;;;5.17;4.77;;;;;;;;;;518160;28;1393;-82
2022/04/05 00:37:48;;;;;;;5.40;4.88;;;;;;;;;;518008;28;1582;-81
2022/04/05 00:38:03;;;;;;;5.43;4.93;;;;;;;;;;517489;28;921;-82
2022/04/05 00:38:19;;;;;;;5.40;4.90;;;;;;;;;;518162;28;1294;-82
2022/04/05 00:38:34;;;;;;;5.40;4.90;;;;;;;;;;516013;28;1252;-82
2022/04/05 00:38:49;;;;;;;5.25;4.85;;;;;;;;;;513615;28;1561;-82
2022/04/05 00:39:05;;;;;;;5.13;4.73;;;;;;;;;;512216;28;1240;-82
2022/04/05 00:39:21;;;;;;;5.63;5.13;;;;;;;;;;512146;29;850;-82
2022/04/05 00:39:36;;;;;;;5.63;5.13;;;;;;;;;;509058;29;1455;-82
2022/04/05 00:39:52;;;;;;;5.80;5.20;;;;;;;;;;508137;29;1302;-82
2022/04/05 00:40:08;;;;;;;5.83;5.20;;;;;;;;;;508268;29;828;-82
2022/04/05 00:40:25;;;;;;;5.38;4.88;;;;;;;;;;508290;29;1653;-82
2022/04/05 00:40:40;;;;;;;5.35;4.90;;;;;;;;;;508902;29;1309;-82
2022/04/05 00:40:56;;;;;;;5.40;4.90;;;;;;;;;;512411;28;2187;-82
2022/04/05 00:41:11;;;;;;;5.65;5.15;;;;;;;;;;513911;28;1513;-82
2022/04/05 00:41:27;;;;;;;5.90;5.30;;;;;;;;;;514728;28;1025;-82
2022/04/05 00:41:42;;;;;;;5.73;5.23;;;;;;;;;;516669;28;1186;-82
2022/04/05 00:41:58;;;;;;;5.63;5.13;;;;;;;;;;518203;28;1170;-82
2022/04/05 00:42:13;;;;;;;5.22;4.82;;;;;;;;;;518231;28;897;-81
2022/04/05 00:42:28;;;;;;;5.10;4.70;;;;;;;;;;518503;28;1115;-82
2022/04/05 00:42:44;;;;;;;5.23;4.73;;;;;;;;;;520200;28;885;-82
2022/04/05 00:43:00;;;;;;;5.40;4.90;;;;;;;;;;517529;28;1632;-82
2022/04/05 00:43:15;;;;;;;5.32;4.88;;;;;;;;;;517895;28;1583;-82
2022/04/05 00:43:30;;;;;;;5.50;5.00;;;;;;;;;;517890;28;1268;-82
2022/04/05 00:43:46;;;;;;;5.50;5.00;;;;;;;;;;517122;28;1635;-82
2022/04/05 00:44:01;;;;;;;5.45;4.95;;;;;;;;;;514264;28;1542;-82
2022/04/05 00:44:17;;;;;;;5.37;4.93;;;;;;;;;;515954;28;743;-82
2022/04/05 00:44:33;;;;;;;5.18;4.78;;;;;;;;;;513369;28;1491;-82
2022/04/05 00:44:48;;;;;;;4.95;4.55;;;;;;;;;;510699;29;1439;-82
2022/04/05 00:45:05;;;;;;;5.07;4.67;;;;;;;;;;510398;29;1607;-82
2022/04/05 00:45:21;;;;;;;5.38;4.88;;;;;;;;;;512561;28;1336;-82
2022/04/05 00:45:36;;;;;;;5.35;4.85;;;;;;;;;;513662;28;1551;-82
2022/04/05 00:45:54;;;;;;;5.23;4.77;;;;;;;;;;512919;28;1147;-82
2022/04/05 00:46:09;;;;;;;5.32;4.82;;;;;;;;;;512272;28;2405;-81
2022/04/05 00:46:24;;;;;;;5.77;4.80;;;;;;;;;;512647;28;830;-81
2022/04/05 00:46:40;;;;;;;5.47;4.67;;;;;;;;;;512436;28;1563;-82
2022/04/05 00:46:55;;;;;;;5.30;4.80;;;;;;;;;;513649;28;1444;-82
2022/04/05 00:47:19;;;;;;;5.30;4.90;;;;;;;;;;512354;28;870;-82
2022/04/05 00:47:34;;;;;;;5.22;4.80;;;;;;;;;;512073;28;1973;-81
2022/04/05 00:47:51;;;;;;;5.35;4.85;;;;;;;;;;514766;28;1004;-82
2022/04/05 00:48:07;;;;;;;5.68;5.18;;;;;;;;;;514555;28;1513;-81
2022/04/05 00:48:30;;;;;;;5.82;5.32;;;;;;;;;;515229;28;1506;-82
2022/04/05 00:48:52;;;;;;;5.40;5.00;;;;;;;;;;513923;28;909;-82
2022/04/05 00:49:13;;;;;;;5.40;5.00;;;;;;;;;;514577;28;1324;-82
2022/04/05 00:49:33;;;;;;;5.18;4.78;;;;;;;;;;516683;28;1436;-82
2022/04/05 00:49:51;;;;;;;4.93;4.53;;;;;;;;;;517320;28;1506;-82
2022/04/05 00:50:06;;;;;;;4.97;4.57;;;;;;;;;;519623;28;1043;-82
2022/04/05 00:50:23;;;;;;;5.22;4.72;;;;;;;;;;518026;28;933;-82
2022/04/05 00:50:38;;;;;;;4.97;4.53;;;;;;;;;;516459;28;1558;-82
2022/04/05 00:50:54;;;;;;;5.15;4.70;;;;;;;;;;514067;28;1211;-82
2022/04/05 00:51:09;;;;;;;5.50;5.00;;;;;;;;;;513096;28;1440;-82
2022/04/05 00:51:25;;;;;;;5.57;5.07;;;;;;;;;;513895;28;1206;-82
2022/04/05 00:51:40;;;;;;;5.90;5.30;;;;;;;;;;513672;28;1565;-82
2022/04/05 00:51:56;;;;;;;5.77;5.27;;;;;;;;;;514104;28;1249;-82
2022/04/05 00:52:13;;;;;;;5.45;5.05;;;;;;;;;;513625;28;1536;-82
2022/04/05 00:52:29;;;;;;;5.18;4.78;;;;;;;;;;514065;28;1515;-82
2022/04/05 00:52:44;;;;;;;5.10;4.70;;;;;;;;;;516339;28;1321;-82
2022/04/05 00:53:02;;;;;;;5.10;4.70;;;;;;;;;;515109;28;1069;-82
2022/04/05 00:53:18;;;;;;;5.28;4.88;;;;;;;;;;512159;29;1261;-82
2022/04/05 00:53:34;;;;;;;5.20;4.70;;;;;;;;;;513397;28;937;-82
2022/04/05 00:53:54;;;;;;;5.00;4.53;;;;;;;;;;511505;28;1543;-82
2022/04/05 00:54:12;;;;;;;5.45;4.95;;;;;;;;;;509711;29;1587;-82
2022/04/05 00:54:30;;;;;;;5.50;5.00;;;;;;;;;;509867;29;1155;-82
2022/04/05 00:54:48;;;;;;;5.20;4.80;;;;;;;;;;512064;29;874;-82
2022/04/05 00:55:04;;;;;;;5.25;4.85;;;;;;;;;;509784;29;1350;-82
2022/04/05 00:55:22;;;;;;;5.35;4.95;;;;;;;;;;511741;29;843;-81
2022/04/05 00:55:39;;;;;;;5.50;5.00;;;;;;;;;;512114;29;1474;-82
2022/04/05 00:55:57;;;;;;;5.50;5.00;;;;;;;;;;512139;29;1225;-82
2022/04/05 00:56:17;;;;;;;5.30;4.90;;;;;;;;;;515323;28;902;-82
2022/04/05 00:56:36;;;;;;;5.03;4.63;;;;;;;;;;514479;28;1568;-82
2022/04/05 00:56:55;;;;;;;5.15;4.72;;;;;;;;;;515274;28;1300;-82
2022/04/05 00:57:15;;;;;;;5.00;4.60;;;;;;;;;;515211;28;1344;-82
2022/04/05 00:57:31;;;;;;;4.90;4.50;;;;;;;;;;516020;28;905;-82
2022/04/05 00:57:53;;;;;;;5.13;4.63;;;;;;;;;;514992;28;1048;-82
2022/04/05 00:58:10;;;;;;;5.10;4.70;;;;;;;;;;513926;28;1512;-82
2022/04/05 00:58:27;;;;;;;5.10;4.70;;;;;;;;;;515267;28;1577;-82
2022/04/05 00:58:47;;;;;;;5.15;4.70;;;;;;;;;;515476;28;886;-82
2022/04/05 00:59:04;;;;;;;5.03;4.55;;;;;;;;;;515141;28;906;-82
2022/04/05 00:59:20;;;;;;;5.30;4.80;;;;;;;;;;514038;28;1319;-82
2022/04/05 00:59:41;;;;;;;5.40;4.90;;;;;;;;;;515198;28;1567;-82
2022/04/05 01:00:01;;;;;;;5.13;4.72;;;;;;;;;;512176;28;1952;-82
2022/04/05 01:00:16;;;;;;;5.00;4.60;;;;;;;;;;513647;28;937;-82
2022/04/05 01:00:32;;;;;;;5.00;4.60;;;;;;;;;;513735;28;1696;-81
2022/04/05 01:00:48;;;;;;;5.05;4.55;;;;;;;;;;513641;28;1409;-82
2022/04/05 01:01:05;;;;;;;5.03;4.60;;;;;;;;;;511751;29;1407;-82
2022/04/05 01:01:22;;;;;;;5.28;4.80;;;;;;;;;;511889;29;1218;-82
2022/04/05 01:01:38;;;;;;;5.40;4.90;;;;;;;;;;510005;29;1317;-82
2022/04/05 01:01:55;;;;;;;5.20;4.80;;;;;;;;;;511536;29;1416;-81
2022/04/05 01:02:16;;;;;;;5.57;5.07;;;;;;;;;;511957;29;866;-81
2022/04/05 01:02:36;;;;;;;5.20;4.75;;;;;;;;;;511643;29;1394;-82
2022/04/05 01:02:54;;;;;;;5.10;4.60;;;;;;;;;;511794;29;1393;-82
2022/04/05 01:03:09;;;;;;;5.07;4.68;;;;;;;;;;510597;29;925;-82
2022/04/05 01:03:26;;;;;;;5.00;4.60;;;;;;;;;;510813;28;1617;-81
2022/04/05 01:03:48;;;;;;;4.93;4.53;;;;;;;;;;514065;28;984;-82
2022/04/05 01:04:03;;;;;;;4.72;4.32;;;;;;;;;;509924;29;3077;-82
2022/04/05 01:04:20;;;;;;;4.70;4.30;;;;;;;;;;510084;29;914;-82
2022/04/05 01:04:38;;;;;;;5.00;4.60;;;;;;;;;;511183;29;2093;-81
2022/04/05 01:04:54;;;;;;;5.50;5.00;;;;;;;;;;513290;28;1289;-82
2022/04/05 01:05:09;;;;;;;5.30;4.80;;;;;;;;;;513737;28;1257;-82
2022/04/05 01:05:26;;;;;;;5.27;4.87;;;;;;;;;;515986;28;822;-82
2022/04/05 01:05:43;;;;;;;5.20;4.80;;;;;;;;;;514064;28;1334;-81
2022/04/05 01:06:01;;;;;;;5.05;4.60;;;;;;;;;;515418;28;1005;-81
2022/04/05 01:06:25;;;;;;;4.93;4.50;;;;;;;;;;516009;28;1274;-82
2022/04/05 01:06:44;;;;;;;4.60;4.20;;;;;;;;;;514689;28;1542;-82
2022/04/05 01:07:04;;;;;;;4.70;4.30;;;;;;;;;;511993;29;1229;-81
2022/04/05 01:07:24;;;;;;;4.80;4.40;;;;;;;;;;511936;29;928;-82
2022/04/05 01:07:41;;;;;;;5.13;4.70;;;;;;;;;;513833;28;885;-82
2022/04/05 01:07:59;;;;;;;4.95;4.55;;;;;;;;;;516348;28;893;-82
2022/04/05 01:08:18;;;;;;;4.80;4.40;;;;;;;;;;514690;28;1519;-82
2022/04/05 01:08:34;;;;;;;4.65;4.25;;;;;;;;;;514112;28;1337;-82
2022/04/05 01:08:50;;;;;;;4.53;4.13;;;;;;;;;;516198;28;1084;-82
2022/04/05 01:09:11;;;;;;;4.90;4.47;;;;;;;;;;514241;28;1149;-82
2022/04/05 01:09:27;;;;;;;5.00;4.60;;;;;;;;;;513140;28;2164;-82
2022/04/05 01:09:43;;;;;;;4.80;4.40;;;;;;;;;;512692;28;922;-81
2022/04/05 01:09:59;;;;;;;4.82;4.43;;;;;;;;;;513157;28;1288;-82
2022/04/05 01:10:15;;;;;;;4.97;4.57;;;;;;;;;;513905;28;1095;-82
2022/04/05 01:10:31;;;;;;;4.80;4.40;;;;;;;;;;513277;28;1225;-82
2022/04/05 01:10:47;;;;;;;4.63;4.22;;;;;;;;;;513792;28;1536;-82
2022/04/05 01:11:02;;;;;;;4.85;4.45;;;;;;;;;;513407;28;1242;-82
2022/04/05 01:11:18;;;;;;;4.90;4.50;;;;;;;;;;513996;28;960;-82
2022/04/05 01:11:33;;;;;;;4.80;4.40;;;;;;;;;;511877;29;1213;-82
2022/04/05 01:11:49;;;;;;;4.80;4.40;;;;;;;;;;512640;28;873;-82
2022/04/05 01:12:06;;;;;;;4.70;4.30;;;;;;;;;;514095;28;1177;-82
2022/04/05 01:12:22;;;;;;;4.82;4.43;;;;;;;;;;512304;28;1599;-82
2022/04/05 01:12:38;;;;;;;4.82;4.43;;;;;;;;;;513948;28;1443;-82
2022/04/05 01:12:53;;;;;;;4.70;4.30;;;;;;;;;;514533;28;1354;-82
2022/04/05 01:13:08;;;;;;;4.82;4.38;;;;;;;;;;515988;28;993;-82
2022/04/05 01:13:24;;;;;;;4.80;4.30;;;;;;;;;;513995;28;1336;-82
2022/04/05 01:13:39;;;;;;;4.70;4.30;;;;;;;;;;514793;28;1573;-82
2022/04/05 01:13:55;;;;;;;5.00;4.60;;;;;;;;;;515379;28;841;-82
2022/04/05 01:14:10;;;;;;;4.95;4.55;;;;;;;;;;511889;28;1598;-82
2022/04/05 01:14:26;;;;;;;4.70;4.30;;;;;;;;;;512126;29;1412;-82
2022/04/05 01:14:41;;;;;;;4.80;4.40;;;;;;;;;;511943;29;1213;-82
2022/04/05 01:14:59;;;;;;;4.85;4.45;;;;;;;;;;509749;29;1479;-82
2022/04/05 01:15:14;;;;;;;4.57;4.18;;;;;;;;;;509803;29;1609;-82
2022/04/05 01:15:29;;;;;;;4.35;3.95;;;;;;;;;;510122;29;1482;-82
2022/04/05 01:15:45;;;;;;;4.43;4.03;;;;;;;;;;510593;29;981;-82
2022/04/05 01:16:00;;;;;;;4.67;4.20;;;;;;;;;;512129;28;1504;-81
2022/04/05 01:16:17;;;;;;;4.70;4.30;;;;;;;;;;513182;28;1457;-81
2022/04/05 01:16:33;;;;;;;4.60;4.20;;;;;;;;;;516220;28;960;-82
2022/04/05 01:16:48;;;;;;;4.40;4.00;;;;;;;;;;514773;28;1318;-82
2022/04/05 01:17:05;;;;;;;4.20;3.83;;;;;;;;;;514144;28;1380;-82
2022/04/05 01:17:20;;;;;;;4.30;3.97;;;;;;;;;;514579;28;1021;-82
2022/04/05 01:17:36;;;;;;;4.40;4.00;;;;;;;;;;516207;28;923;-82
2022/04/05 01:17:52;;;;;;;4.50;4.10;;;;;;;;;;516240;28;838;-82
2022/04/05 01:18:08;;;;;;;4.60;4.20;;;;;;;;;;515691;28;1648;-82
2022/04/05 01:18:23;;;;;;;4.57;4.18;;;;;;;;;;514235;28;1784;-82
2022/04/05 01:18:38;;;;;;;4.57;4.17;;;;;;;;;;510999;28;1811;-82
2022/04/05 01:18:54;;;;;;;4.65;4.25;;;;;;;;;;513668;28;914;-82
2022/04/05 01:19:09;;;;;;;4.60;4.20;;;;;;;;;;514184;28;1461;-82
2022/04/05 01:19:26;;;;;;;4.60;4.20;;;;;;;;;;514962;28;1373;-82
2022/04/05 01:19:42;;;;;;;4.57;4.18;;;;;;;;;;513696;28;1555;-82
2022/04/05 01:19:58;;;;;;;4.50;4.10;;;;;;;;;;514473;28;1672;-82
2022/04/05 01:20:13;;;;;;;4.30;4.00;;;;;;;;;;513742;28;1359;-82
2022/04/05 01:20:28;;;;;;;4.57;3.90;;;;;;;;;;514360;28;1502;-82
2022/04/05 01:20:44;;;;;;;5.32;4.13;;;;;;;;;;517322;28;1165;-82
2022/04/05 01:21:00;;;;;;;4.70;4.30;;;;;;;;;;517964;28;906;-82
2022/04/05 01:21:16;;;;;;;4.68;4.28;;;;;;;;;;516467;28;1308;-82
2022/04/05 01:21:31;;;;;;;4.93;4.43;;;;;;;;;;517858;28;858;-82
2022/04/05 01:21:47;;;;;;;5.03;4.45;;;;;;;;;;515803;28;1353;-82
2022/04/05 01:22:02;;;;;;;4.80;4.30;;;;;;;;;;513828;28;1508;-82
2022/04/05 01:22:18;;;;;;;4.65;4.25;;;;;;;;;;514829;28;1355;-82
2022/04/05 01:22:33;;;;;;;4.50;4.10;;;;;;;;;;514209;28;1234;-82
2022/04/05 01:22:50;;;;;;;4.50;4.10;;;;;;;;;;516066;28;830;-82
2022/04/05 01:23:06;;;;;;;4.60;4.20;;;;;;;;;;515253;28;1590;-82
2022/04/05 01:23:22;;;;;;;4.40;4.00;;;;;;;;;;515584;28;1727;-82
2022/04/05 01:23:37;;;;;;;4.47;4.07;;;;;;;;;;516069;28;834;-82
2022/04/05 01:24:12;;;;;;;4.70;4.30;;;;;;;;;;516590;28;988;-82
2022/04/05 01:24:27;;;;;;;4.70;4.30;;;;;;;;;;515502;28;1261;-82
2022/04/05 01:24:43;;;;;;;4.63;4.22;;;;;;;;;;515938;28;1383;-82
2022/04/05 01:24:58;;;;;;;4.50;4.10;;;;;;;;;;514257;28;1626;-82
2022/04/05 01:25:15;;;;;;;4.30;4.00;;;;;;;;;;514593;28;885;-82
2022/04/05 01:25:31;;;;;;;4.35;3.95;;;;;;;;;;512615;28;1452;-82
2022/04/05 01:25:47;;;;;;;4.67;4.27;;;;;;;;;;513114;28;1405;-82
2022/04/05 01:26:03;;;;;;;4.53;4.13;;;;;;;;;;513772;28;1372;-82
2022/04/05 01:26:18;;;;;;;4.50;4.10;;;;;;;;;;514802;28;921;-82
2022/04/05 01:26:42;;;;;;;4.60;4.20;;;;;;;;;;515915;28;1622;-82
2022/04/05 01:26:58;;;;;;;4.68;4.28;;;;;;;;;;517546;28;894;-82
2022/04/05 01:27:18;;;;;;;4.55;4.15;;;;;;;;;;518030;28;908;-82
2022/04/05 01:27:33;;;;;;;4.35;4.05;;;;;;;;;;517586;28;1907;-82
2022/04/05 01:27:50;;;;;;;3.97;3.67;;;;;;;;;;515905;28;1282;-82
2022/04/05 01:28:05;;;;;;;3.88;3.58;;;;;;;;;;515692;28;1652;-82
2022/04/05 01:28:21;;;;;;;4.00;3.70;;;;;;;;;;515264;28;1399;-82
2022/04/05 01:28:36;;;;;;;4.33;3.93;;;;;;;;;;512176;28;1360;-82
2022/04/05 01:28:52;;;;;;;4.60;4.20;;;;;;;;;;511734;29;1630;-82
2022/04/05 01:29:08;;;;;;;4.40;4.10;;;;;;;;;;509358;29;1459;-82
2022/04/05 01:29:27;;;;;;;4.20;3.90;;;;;;;;;;509075;29;886;-82
2022/04/05 01:29:43;;;;;;;4.32;3.95;;;;;;;;;;510526;29;1440;-82
2022/04/05 01:29:58;;;;;;;4.38;3.97;;;;;;;;;;507994;29;1321;-82
2022/04/05 01:30:14;;;;;;;4.37;4.07;;;;;;;;;;510008;29;997;-82
2022/04/05 01:30:31;;;;;;;4.40;4.00;;;;;;;;;;510398;28;1586;-82
2022/04/05 01:30:46;;;;;;;4.38;3.97;;;;;;;;;;513112;28;1374;-82
2022/04/05 01:31:01;;;;;;;4.23;3.90;;;;;;;;;;513024;28;988;-82
2022/04/05 01:31:17;;;;;;;4.20;3.90;;;;;;;;;;513798;28;1595;-82
2022/04/05 01:31:37;;;;;;;4.50;4.10;;;;;;;;;;514134;28;1398;-82
2022/04/05 01:32:03;;;;;;;4.70;4.30;;;;;;;;;;515894;28;1220;-82
2022/04/05 01:32:19;;;;;;;4.50;4.10;;;;;;;;;;513038;28;1713;-82
2022/04/05 01:32:35;;;;;;;4.50;4.10;;;;;;;;;;514059;28;874;-82
2022/04/05 01:32:50;;;;;;;4.50;4.10;;;;;;;;;;512149;29;1429;-82
2022/04/05 01:33:06;;;;;;;4.63;4.20;;;;;;;;;;512407;28;771;-82
2022/04/05 01:33:22;;;;;;;4.50;4.10;;;;;;;;;;516046;28;1381;-82
2022/04/05 01:33:37;;;;;;;4.50;4.10;;;;;;;;;;516100;28;902;-82
2022/04/05 01:33:53;;;;;;;4.60;4.20;;;;;;;;;;515981;28;1161;-82
2022/04/05 01:34:08;;;;;;;4.57;4.18;;;;;;;;;;515627;28;1477;-82
2022/04/05 01:34:26;;;;;;;4.50;4.10;;;;;;;;;;514005;28;1218;-82
2022/04/05 01:34:41;;;;;;;4.25;3.85;;;;;;;;;;513034;28;1568;-82
2022/04/05 01:34:57;;;;;;;4.37;3.97;;;;;;;;;;513983;28;905;-82
2022/04/05 01:35:14;;;;;;;4.30;3.90;;;;;;;;;;511471;29;1318;-82
2022/04/05 01:35:29;;;;;;;4.30;3.90;;;;;;;;;;510187;29;1612;-82
2022/04/05 01:35:45;;;;;;;4.23;3.87;;;;;;;;;;514564;28;1133;-82
2022/04/05 01:36:03;;;;;;;4.32;3.95;;;;;;;;;;515531;28;1563;-82
2022/04/05 01:36:22;;;;;;;4.70;4.30;;;;;;;;;;514474;28;1436;-82
2022/04/05 01:36:46;;;;;;;4.75;4.35;;;;;;;;;;513728;28;1809;-82
2022/04/05 01:37:05;;;;;;;4.50;4.18;;;;;;;;;;514392;28;972;-82
2022/04/05 01:37:20;;;;;;;4.30;4.00;;;;;;;;;;518075;28;973;-83
2022/04/05 01:37:35;;;;;;;4.10;3.80;;;;;;;;;;517259;28;787;-82
2022/04/05 01:37:51;;;;;;;4.17;3.83;;;;;;;;;;513947;28;1319;-82
2022/04/05 01:38:13;;;;;;;4.28;3.92;;;;;;;;;;511805;28;1552;-83
2022/04/05 01:38:28;;;;;;;4.30;3.90;;;;;;;;;;511336;28;1802;-83
2022/04/05 01:38:44;;;;;;;4.47;4.07;;;;;;;;;;509561;29;1482;-82
2022/04/05 01:38:59;;;;;;;4.60;4.20;;;;;;;;;;509894;29;1469;-83
2022/04/05 01:39:15;;;;;;;4.60;4.27;;;;;;;;;;510140;29;1349;-82
2022/04/05 01:39:33;;;;;;;4.30;3.90;;;;;;;;;;511929;28;1298;-83
2022/04/05 01:39:49;;;;;;;4.50;4.10;;;;;;;;;;513735;28;1453;-82
2022/04/05 01:40:05;;;;;;;4.65;4.25;;;;;;;;;;515063;28;1599;-82
2022/04/05 01:40:20;;;;;;;4.50;4.10;;;;;;;;;;515845;28;1497;-83
2022/04/05 01:40:36;;;;;;;4.57;4.17;;;;;;;;;;517247;28;1876;-83
2022/04/05 01:40:52;;;;;;;4.70;4.30;;;;;;;;;;517974;28;1236;-83